Niagara, Wisconsin
Current Conditions -  °F | °C
As of 7:01 PM on Monday 26 Jan 2015 (Local Time) from KIMT Reporting Station
Light Snow Light Snow  
Wind Chill: 16°   Ceiling: 1400
Heat Index: 22°   Visibility: 1.7mi
Dew Point: 18°   Wind: 5mph
Humidity: 85%   Direction: 120°ESE
Pressure: 29.87"   Gusts: NA
Location:  45.77°N, 87.99°W
Report Text: KIMT 270101Z AUTO 12004KT 1 3/4SM -SN BR BKN014 OVC024 M06/M08 A2987 RMK AO2 P0000 T10561078
Loading
Personal Weather Stations






























Interactive Weather Map New forecast layout! Learn more

10-Day Weather Forecast

Advertisements
Track Severe Weather on mobile